createdAt,value
2023-02-21T00:01:07.891Z,55.70
2023-02-21T00:03:53.568Z,55.20
2023-02-21T00:06:39.112Z,55.60
2023-02-21T00:09:25.988Z,55.40
2023-02-21T00:12:11.591Z,55.30
2023-02-21T00:14:57.606Z,55.50
2023-02-21T00:17:43.776Z,54.80
2023-02-21T00:20:29.388Z,54.80
2023-02-21T00:23:14.785Z,54.60
2023-02-21T00:26:02.015Z,54.80
2023-02-21T00:28:47.454Z,54.70
2023-02-21T00:31:36.966Z,54.80
2023-02-21T00:34:22.469Z,55.20
2023-02-21T00:37:08.263Z,54.70
2023-02-21T00:39:53.709Z,54.70
2023-02-21T00:42:40.702Z,54.70
2023-02-21T00:45:27.231Z,55.10
2023-02-21T00:48:12.694Z,55.50
2023-02-21T00:50:59.519Z,55.40
2023-02-21T00:53:45.169Z,55.50
2023-02-21T00:56:30.484Z,55.70
2023-02-21T00:59:17.477Z,56.30
2023-02-21T01:02:02.949Z,56.10
2023-02-21T01:04:48.409Z,55.90
2023-02-21T01:07:34.007Z,56.40
2023-02-21T01:10:19.879Z,56.00
2023-02-21T01:13:05.476Z,56.00
2023-02-21T01:15:52.457Z,56.30
2023-02-21T01:18:38.533Z,56.50
2023-02-21T01:21:24.464Z,56.60
2023-02-21T01:24:11.942Z,56.30
2023-02-21T01:26:57.387Z,56.50
2023-02-21T01:29:43.045Z,56.10
2023-02-21T01:32:29.853Z,56.40
2023-02-21T01:35:15.569Z,55.80
2023-02-21T01:38:00.932Z,55.70
2023-02-21T01:40:46.580Z,56.00
2023-02-21T01:43:34.508Z,55.60
2023-02-21T01:46:20.504Z,55.70
2023-02-21T01:49:09.944Z,55.70
2023-02-21T01:51:58.237Z,56.10
2023-02-21T01:54:46.607Z,56.70
2023-02-21T01:57:33.250Z,57.30
2023-02-21T02:00:22.973Z,57.20
2023-02-21T02:03:13.164Z,58.20
2023-02-21T02:06:02.989Z,57.90
2023-02-21T02:08:51.000Z,58.20
2023-02-21T02:11:58.864Z,57.80
2023-02-21T02:14:50.191Z,57.80
2023-02-21T02:17:34.137Z,58.10
2023-02-21T02:20:43.933Z,58.40
2023-02-21T02:23:44.256Z,59.00
2023-02-21T02:27:05.898Z,59.50
2023-02-21T02:30:11.767Z,60.20
2023-02-21T02:32:59.242Z,60.50
2023-02-21T02:35:32.382Z,60.30
2023-02-21T02:38:04.030Z,60.70
2023-02-21T02:40:36.476Z,60.20
2023-02-21T02:43:13.269Z,60.80
2023-02-21T02:45:46.361Z,61.20
2023-02-21T02:48:19.433Z,61.30
2023-02-21T02:50:52.151Z,61.30
2023-02-21T02:53:22.761Z,60.80
2023-02-21T02:55:57.289Z,60.60
2023-02-21T02:58:29.297Z,60.50
2023-02-21T03:01:09.098Z,60.40
2023-02-21T03:03:53.255Z,60.50
2023-02-21T03:06:31.683Z,60.40
2023-02-21T03:09:09.560Z,60.90
2023-02-21T03:11:44.156Z,60.90
2023-02-21T03:14:17.610Z,61.60
2023-02-21T03:16:51.379Z,61.60
2023-02-21T03:19:27.182Z,61.40
2023-02-21T03:22:00.715Z,61.50
2023-02-21T03:24:30.577Z,61.40
2023-02-21T03:27:03.668Z,61.80
2023-02-21T03:29:52.031Z,62.60
2023-02-21T03:32:25.233Z,63.60
2023-02-21T03:34:54.860Z,63.40
2023-02-21T03:37:33.163Z,63.30
2023-02-21T03:40:02.301Z,62.70
2023-02-21T03:42:33.669Z,62.60
2023-02-21T03:45:02.291Z,62.20
2023-02-21T03:47:30.516Z,61.60
2023-02-21T03:49:59.078Z,62.30
2023-02-21T03:52:28.721Z,61.50
2023-02-21T03:54:57.156Z,61.20
2023-02-21T03:57:26.900Z,61.00
2023-02-21T03:59:55.192Z,60.70
2023-02-21T04:02:24.395Z,60.70
2023-02-21T04:04:52.638Z,60.70
2023-02-21T04:07:24.043Z,60.90
2023-02-21T04:09:53.795Z,61.40
2023-02-21T04:12:29.478Z,62.50
2023-02-21T04:14:58.730Z,62.10
2023-02-21T04:17:27.395Z,62.20
2023-02-21T04:19:56.992Z,62.50
2023-02-21T04:22:26.145Z,62.40
2023-02-21T04:24:55.986Z,62.80
2023-02-21T04:27:27.040Z,63.20
2023-02-21T04:29:57.475Z,63.20
2023-02-21T04:32:25.784Z,63.20
2023-02-21T04:34:54.804Z,63.10
2023-02-21T04:37:23.421Z,62.20
2023-02-21T04:39:51.850Z,61.50
2023-02-21T04:42:21.448Z,61.00
2023-02-21T04:44:59.816Z,60.60
2023-02-21T04:47:29.668Z,60.20
2023-02-21T04:49:58.660Z,59.80
2023-02-21T04:52:26.820Z,59.90
2023-02-21T04:54:55.029Z,59.60
2023-02-21T04:57:24.883Z,59.50
2023-02-21T04:59:58.150Z,59.50
2023-02-21T05:02:26.482Z,59.50
2023-02-21T05:04:54.719Z,59.70
2023-02-21T05:07:22.818Z,59.40
2023-02-21T05:09:50.964Z,59.50
2023-02-21T05:12:19.097Z,59.30
2023-02-21T05:14:48.659Z,59.30
2023-02-21T05:17:16.857Z,59.30
2023-02-21T05:19:44.953Z,60.30
2023-02-21T05:22:13.120Z,59.50
2023-02-21T05:24:43.524Z,60.10
2023-02-21T05:27:15.601Z,59.70
2023-02-21T05:29:46.974Z,59.80
2023-02-21T05:32:17.763Z,61.10
2023-02-21T05:34:47.727Z,60.20
2023-02-21T05:37:16.352Z,60.40
2023-02-21T05:39:44.694Z,60.80
2023-02-21T05:42:12.804Z,61.00
2023-02-21T05:44:41.314Z,61.60
2023-02-21T05:47:09.515Z,62.80
2023-02-21T05:49:39.111Z,63.00
2023-02-21T05:52:07.846Z,63.20
2023-02-21T05:54:36.106Z,63.40
2023-02-21T05:57:04.676Z,63.70
2023-02-21T05:59:32.914Z,64.60
2023-02-21T06:02:01.773Z,65.00
2023-02-21T06:04:29.924Z,65.10
2023-02-21T06:06:59.474Z,65.70
2023-02-21T06:09:27.670Z,66.00
2023-02-21T06:11:58.068Z,65.70
2023-02-21T06:14:26.872Z,65.80
2023-02-21T06:16:55.074Z,65.50
2023-02-21T06:19:23.145Z,66.20
2023-02-21T06:21:51.563Z,66.20
2023-02-21T06:24:21.060Z,66.40
2023-02-21T06:26:49.206Z,66.50
2023-02-21T06:29:17.370Z,66.70
2023-02-21T06:31:45.536Z,67.00
2023-02-21T06:34:13.895Z,67.50
2023-02-21T06:36:42.030Z,68.20
2023-02-21T06:39:13.169Z,68.90
2023-02-21T06:41:42.631Z,70.00
2023-02-21T06:44:10.789Z,70.30
2023-02-21T06:46:39.086Z,70.20
2023-02-21T06:49:07.283Z,69.60
2023-02-21T06:51:36.464Z,69.70
2023-02-21T06:54:05.567Z,69.90
2023-02-21T06:56:33.773Z,69.70
2023-02-21T06:59:03.754Z,69.60
2023-02-21T07:01:32.770Z,69.90
2023-02-21T07:04:01.506Z,70.50
2023-02-21T07:06:31.348Z,69.40
2023-02-21T07:08:59.452Z,69.40
2023-02-21T07:11:27.902Z,68.90
2023-02-21T07:13:57.077Z,68.20
2023-02-21T07:16:27.287Z,68.00
2023-02-21T07:18:55.781Z,67.90
2023-02-21T07:21:24.166Z,69.10
2023-02-21T07:23:52.389Z,68.70
2023-02-21T07:26:20.576Z,68.40
2023-02-21T07:28:49.059Z,68.20
2023-02-21T07:31:19.634Z,70.40
2023-02-21T07:33:49.473Z,69.40
2023-02-21T07:36:18.153Z,69.70
2023-02-21T07:38:46.305Z,70.70
2023-02-21T07:41:15.916Z,70.50
2023-02-21T07:43:44.622Z,71.90
2023-02-21T07:46:13.728Z,74.10
2023-02-21T07:48:42.131Z,72.30
2023-02-21T07:51:11.841Z,73.10
2023-02-21T07:53:40.065Z,73.70
2023-02-21T07:56:08.641Z,75.40
2023-02-21T07:58:38.153Z,73.50
2023-02-21T08:01:07.089Z,74.10
2023-02-21T08:03:35.337Z,72.10
2023-02-21T08:06:03.625Z,73.60
2023-02-21T08:08:33.165Z,73.50
2023-02-21T08:11:01.421Z,73.30
2023-02-21T08:13:29.752Z,73.10
2023-02-21T08:15:57.879Z,77.50
2023-02-21T08:18:26.494Z,77.20
2023-02-21T08:20:56.666Z,78.10
2023-02-21T08:23:25.256Z,78.60
2023-02-21T08:25:54.795Z,76.20
2023-02-21T08:28:22.841Z,76.60
2023-02-21T08:30:50.952Z,78.20
2023-02-21T08:33:19.134Z,76.70
2023-02-21T08:35:47.405Z,75.70
2023-02-21T08:38:15.496Z,72.80
2023-02-21T08:40:43.631Z,73.70
2023-02-21T08:43:13.174Z,70.90
2023-02-21T08:45:41.418Z,68.70
2023-02-21T08:48:09.627Z,67.70
2023-02-21T08:50:37.853Z,66.70
2023-02-21T08:53:06.073Z,66.50
2023-02-21T08:55:34.269Z,66.90
2023-02-21T08:58:02.496Z,64.80
2023-02-21T09:00:32.177Z,64.30
2023-02-21T09:03:01.012Z,61.60
2023-02-21T09:05:30.997Z,60.70
2023-02-21T09:08:02.523Z,59.50
2023-02-21T09:10:34.054Z,59.30
2023-02-21T09:13:02.860Z,59.00
2023-02-21T09:15:32.875Z,57.70
2023-02-21T09:18:01.154Z,57.40
2023-02-21T09:20:29.330Z,56.50
2023-02-21T09:22:57.498Z,56.30
2023-02-21T09:25:26.910Z,55.70
2023-02-21T09:27:55.298Z,55.70
2023-02-21T09:30:27.432Z,56.00
2023-02-21T09:32:58.800Z,53.90
2023-02-21T09:35:30.438Z,54.10
2023-02-21T09:37:59.368Z,53.30
2023-02-21T09:40:35.514Z,54.20
2023-02-21T09:43:04.897Z,54.50
2023-02-21T09:45:35.528Z,53.80
2023-02-21T09:48:09.115Z,51.20
2023-02-21T09:50:44.593Z,51.20
2023-02-21T09:53:17.437Z,52.40
2023-02-21T09:55:45.992Z,50.80
2023-02-21T09:58:16.745Z,50.30
2023-02-21T10:00:46.823Z,51.20
2023-02-21T10:03:45.786Z,49.00
2023-02-21T10:06:25.154Z,48.70
2023-02-21T10:08:58.900Z,49.20
2023-02-21T10:11:36.288Z,50.30
2023-02-21T10:14:14.236Z,50.60
2023-02-21T10:16:48.932Z,50.00
2023-02-21T10:19:26.099Z,49.60
2023-02-21T10:21:55.522Z,47.60
2023-02-21T10:24:25.266Z,51.70
2023-02-21T10:27:00.827Z,49.20
2023-02-21T10:29:40.848Z,47.80
2023-02-21T10:32:10.235Z,47.00
2023-02-21T10:34:40.237Z,46.80
2023-02-21T10:37:29.349Z,45.50
2023-02-21T10:40:07.562Z,46.40
2023-02-21T10:42:41.828Z,46.90
2023-02-21T10:45:12.716Z,46.30
2023-02-21T10:47:50.923Z,44.70
2023-02-21T10:50:38.312Z,46.20
2023-02-21T10:53:07.421Z,46.70
2023-02-21T10:55:36.100Z,47.20
2023-02-21T10:58:10.048Z,46.20
2023-02-21T11:00:42.205Z,47.20
2023-02-21T11:03:21.944Z,44.60
2023-02-21T11:05:53.268Z,45.70
2023-02-21T11:08:40.663Z,47.00
2023-02-21T11:11:09.663Z,45.90
2023-02-21T11:13:38.427Z,44.60
2023-02-21T11:16:12.921Z,44.30
2023-02-21T11:18:41.165Z,45.00
2023-02-21T11:21:15.749Z,44.40
2023-02-21T11:23:50.188Z,43.90
2023-02-21T11:26:18.445Z,44.50
2023-02-21T11:28:48.523Z,43.90
2023-02-21T11:31:19.446Z,41.70
2023-02-21T11:33:56.911Z,40.90
2023-02-21T11:36:30.843Z,40.20
2023-02-21T11:39:08.423Z,39.80
2023-02-21T11:41:39.637Z,39.90
2023-02-21T11:44:30.913Z,39.70
2023-02-21T11:47:16.781Z,38.40
2023-02-21T11:49:54.494Z,37.60
2023-02-21T11:52:27.140Z,36.20
2023-02-21T11:54:55.351Z,34.60
2023-02-21T11:57:31.232Z,36.10
2023-02-21T12:00:08.853Z,34.50
2023-02-21T12:03:04.081Z,33.90
2023-02-21T12:05:43.851Z,34.30
2023-02-21T12:08:35.214Z,36.00
2023-02-21T12:11:14.662Z,34.00
2023-02-21T12:13:52.912Z,35.30
2023-02-21T12:16:33.995Z,33.10
2023-02-21T12:19:16.115Z,37.40
2023-02-21T12:22:03.118Z,37.20
2023-02-21T12:24:57.251Z,36.00
2023-02-21T12:27:35.124Z,35.20
2023-02-21T12:30:20.728Z,34.70
2023-02-21T12:32:59.204Z,36.00
2023-02-21T12:35:54.803Z,35.90
2023-02-21T12:38:32.595Z,37.70
2023-02-21T12:41:11.054Z,37.30
2023-02-21T12:43:49.505Z,36.80
2023-02-21T12:46:26.490Z,34.50
2023-02-21T12:49:01.141Z,35.40
2023-02-21T12:51:35.193Z,34.60
2023-02-21T12:54:06.385Z,37.50
2023-02-21T12:56:40.919Z,36.60
2023-02-21T12:59:16.661Z,34.20
2023-02-21T13:01:49.248Z,33.50
2023-02-21T13:04:28.588Z,33.20
2023-02-21T13:07:03.021Z,32.30
2023-02-21T13:09:35.989Z,31.90
2023-02-21T13:12:10.336Z,32.40
2023-02-21T13:14:44.751Z,35.40
2023-02-21T13:17:16.802Z,34.10
2023-02-21T13:19:48.894Z,34.30
2023-02-21T13:23:12.226Z,31.70
2023-02-21T13:26:13.951Z,35.10
2023-02-21T13:28:45.892Z,35.60
2023-02-21T13:31:21.142Z,36.80
2023-02-21T13:33:52.898Z,36.90
2023-02-21T13:36:29.635Z,36.80
2023-02-21T13:39:05.423Z,39.60
2023-02-21T13:41:37.740Z,36.50
2023-02-21T13:44:11.440Z,37.60
2023-02-21T13:47:10.615Z,40.40
2023-02-21T13:49:54.332Z,39.90
2023-02-21T13:52:53.769Z,38.20
2023-02-21T13:55:29.827Z,34.70
2023-02-21T13:58:32.667Z,34.90
2023-02-21T14:01:26.774Z,34.90
2023-02-21T14:03:58.185Z,35.00
2023-02-21T14:06:38.325Z,33.90
2023-02-21T14:09:14.165Z,34.90
2023-02-21T14:11:49.116Z,33.60
2023-02-21T14:14:25.180Z,33.60
2023-02-21T14:17:02.233Z,37.10
2023-02-21T14:19:36.920Z,33.10
2023-02-21T14:22:11.543Z,30.90
2023-02-21T14:24:42.838Z,31.00
2023-02-21T14:27:33.980Z,31.60
2023-02-21T14:30:34.566Z,32.20
2023-02-21T14:33:23.320Z,29.10
2023-02-21T14:36:00.421Z,28.70
2023-02-21T14:38:31.347Z,26.90
2023-02-21T14:41:17.496Z,28.00
2023-02-21T14:44:07.576Z,29.40
2023-02-21T14:47:08.545Z,30.00
2023-02-21T14:49:55.448Z,32.60
2023-02-21T14:52:44.124Z,30.90
2023-02-21T14:55:55.035Z,29.50
2023-02-21T14:58:42.131Z,30.50
2023-02-21T15:01:17.601Z,27.80
2023-02-21T15:03:50.034Z,27.90
2023-02-21T15:06:23.736Z,31.30
2023-02-21T15:08:53.161Z,31.20
2023-02-21T15:11:26.409Z,32.50
2023-02-21T15:14:26.532Z,31.60
2023-02-21T15:16:56.845Z,31.90
2023-02-21T15:19:29.050Z,32.00
2023-02-21T15:22:25.131Z,32.10
2023-02-21T15:25:03.134Z,33.50
2023-02-21T15:27:31.432Z,33.70
2023-02-21T15:30:08.681Z,32.80
2023-02-21T15:32:37.448Z,34.00
2023-02-21T15:35:09.090Z,33.90
2023-02-21T15:37:41.920Z,33.20
2023-02-21T15:40:20.466Z,32.80
2023-02-21T15:42:51.248Z,33.40
2023-02-21T15:45:23.759Z,31.90
2023-02-21T15:47:52.409Z,31.40
2023-02-21T15:50:30.633Z,32.50
2023-02-21T15:53:12.589Z,32.60
2023-02-21T15:55:41.331Z,33.10
2023-02-21T15:58:22.235Z,33.80
2023-02-21T16:01:06.974Z,34.00
2023-02-21T16:03:38.967Z,33.70
2023-02-21T16:06:17.457Z,34.00
2023-02-21T16:09:01.946Z,34.60
2023-02-21T16:11:41.689Z,34.40
2023-02-21T16:14:18.950Z,34.60
2023-02-21T16:16:47.744Z,35.20
2023-02-21T16:19:16.092Z,35.30
2023-02-21T16:21:44.206Z,36.00
2023-02-21T16:24:29.853Z,34.70
2023-02-21T16:27:05.743Z,35.30
2023-02-21T16:29:33.949Z,35.40
2023-02-21T16:32:02.273Z,35.80
2023-02-21T16:34:33.392Z,35.40
2023-02-21T16:37:07.747Z,35.00
2023-02-21T16:39:37.578Z,35.70
2023-02-21T16:42:05.878Z,35.40
2023-02-21T16:44:34.508Z,35.80
2023-02-21T16:47:02.796Z,35.30
2023-02-21T16:49:32.843Z,35.10
2023-02-21T16:52:01.274Z,35.40
2023-02-21T16:54:29.360Z,35.20
2023-02-21T16:56:59.097Z,34.50
2023-02-21T16:59:27.451Z,34.80
2023-02-21T17:01:55.668Z,34.90
2023-02-21T17:04:27.121Z,35.10
2023-02-21T17:06:59.079Z,36.40
2023-02-21T17:09:30.263Z,36.00
2023-02-21T17:12:00.667Z,36.70
2023-02-21T17:14:28.830Z,35.30
2023-02-21T17:16:59.682Z,35.40
2023-02-21T17:19:28.078Z,35.60
2023-02-21T17:21:58.272Z,35.70
2023-02-21T17:24:26.344Z,35.80
2023-02-21T17:26:55.039Z,36.20
2023-02-21T17:29:25.776Z,36.60
2023-02-21T17:31:54.747Z,37.20
2023-02-21T17:34:23.538Z,37.10
2023-02-21T17:36:53.438Z,37.50
2023-02-21T17:39:22.677Z,37.90
2023-02-21T17:41:51.864Z,38.40
2023-02-21T17:44:20.601Z,38.90
2023-02-21T17:46:50.916Z,39.30
2023-02-21T17:49:20.668Z,40.60
2023-02-21T17:51:49.483Z,40.50
2023-02-21T17:54:19.886Z,41.10
2023-02-21T17:56:48.756Z,41.50
2023-02-21T17:59:17.301Z,41.40
2023-02-21T18:01:45.745Z,41.70
2023-02-21T18:04:15.725Z,42.00
2023-02-21T18:06:44.016Z,42.20
2023-02-21T18:09:12.378Z,42.60
2023-02-21T18:11:40.565Z,43.10
2023-02-21T18:14:08.861Z,43.10
2023-02-21T18:16:36.953Z,43.60
2023-02-21T18:19:05.068Z,44.00
2023-02-21T18:21:34.575Z,44.60
2023-02-21T18:24:02.702Z,44.80
2023-02-21T18:26:30.825Z,44.70
2023-02-21T18:28:58.878Z,44.30
2023-02-21T18:31:27.278Z,44.20
2023-02-21T18:33:55.389Z,44.30
2023-02-21T18:36:23.920Z,44.30
2023-02-21T18:38:53.358Z,44.20
2023-02-21T18:41:22.959Z,43.80
2023-02-21T18:43:51.895Z,43.70
2023-02-21T18:46:22.250Z,43.60
2023-02-21T18:48:52.162Z,43.70
2023-02-21T18:51:21.484Z,43.00
2023-02-21T18:53:50.253Z,43.00
2023-02-21T18:56:21.199Z,43.20
2023-02-21T18:58:50.349Z,43.40
2023-02-21T19:01:21.752Z,43.80
2023-02-21T19:03:51.570Z,44.00
2023-02-21T19:06:21.688Z,44.20
2023-02-21T19:08:50.563Z,44.40
2023-02-21T19:11:20.389Z,44.60
2023-02-21T19:13:50.373Z,44.70
2023-02-21T19:16:20.617Z,44.70
2023-02-21T19:18:51.504Z,44.60
2023-02-21T19:21:19.910Z,44.70
2023-02-21T19:23:48.187Z,44.90
2023-02-21T19:26:16.309Z,44.90
2023-02-21T19:28:46.485Z,45.10
2023-02-21T19:31:18.957Z,45.00
2023-02-21T19:33:47.375Z,45.30
2023-02-21T19:36:15.593Z,45.40
2023-02-21T19:38:43.771Z,45.40
2023-02-21T19:41:11.843Z,45.50
2023-02-21T19:43:39.988Z,45.60
2023-02-21T19:46:09.550Z,45.60
2023-02-21T19:48:37.632Z,45.50
2023-02-21T19:51:06.237Z,45.70
2023-02-21T19:53:34.341Z,46.10
2023-02-21T19:56:02.989Z,46.00
2023-02-21T19:58:31.205Z,46.40
2023-02-21T20:00:59.529Z,46.40
2023-02-21T20:03:29.173Z,46.60
2023-02-21T20:05:58.509Z,46.30
2023-02-21T20:08:26.835Z,46.40
2023-02-21T20:10:55.031Z,46.50
2023-02-21T20:13:23.383Z,46.60
2023-02-21T20:15:51.510Z,46.60
2023-02-21T20:18:19.681Z,46.70
2023-02-21T20:20:49.629Z,47.30
2023-02-21T20:23:18.237Z,46.90
2023-02-21T20:25:46.510Z,47.00
2023-02-21T20:28:14.870Z,47.40
2023-02-21T20:30:43.603Z,48.00
2023-02-21T20:33:11.842Z,48.30
2023-02-21T20:35:39.988Z,49.50
2023-02-21T20:38:10.848Z,49.10
2023-02-21T20:40:39.813Z,49.50
2023-02-21T20:43:08.191Z,49.80
2023-02-21T20:45:37.288Z,49.80
2023-02-21T20:48:08.900Z,50.10
2023-02-21T20:50:37.012Z,50.30
2023-02-21T20:53:06.657Z,50.30
2023-02-21T20:55:37.379Z,50.90
2023-02-21T20:58:05.808Z,50.00
2023-02-21T21:00:37.665Z,49.80
2023-02-21T21:03:09.341Z,49.60
2023-02-21T21:05:37.567Z,49.10
2023-02-21T21:08:08.841Z,49.20
2023-02-21T21:10:38.609Z,49.30
2023-02-21T21:13:07.008Z,49.90
2023-02-21T21:15:35.185Z,50.40
2023-02-21T21:18:03.353Z,50.50
2023-02-21T21:20:33.346Z,50.40
2023-02-21T21:23:01.576Z,50.60
2023-02-21T21:25:34.680Z,50.20
2023-02-21T21:28:05.469Z,49.80
2023-02-21T21:30:33.855Z,49.70
2023-02-21T21:33:02.028Z,49.80
2023-02-21T21:35:30.879Z,50.40
2023-02-21T21:37:59.965Z,50.50
2023-02-21T21:40:28.842Z,49.80
2023-02-21T21:42:57.208Z,50.00
2023-02-21T21:45:28.390Z,50.30
2023-02-21T21:47:59.055Z,50.20
2023-02-21T21:50:27.438Z,50.30
2023-02-21T21:52:58.922Z,50.40
2023-02-21T21:55:29.591Z,50.70
2023-02-21T21:57:58.853Z,50.80
2023-02-21T22:00:30.259Z,51.20
2023-02-21T22:03:02.039Z,51.80
2023-02-21T22:05:31.899Z,51.90
2023-02-21T22:08:00.476Z,52.20
2023-02-21T22:10:29.879Z,52.30
2023-02-21T22:13:00.529Z,52.70
2023-02-21T22:15:31.094Z,53.00
2023-02-21T22:18:04.138Z,53.20
2023-02-21T22:20:32.355Z,53.20
2023-02-21T22:23:00.885Z,52.80
2023-02-21T22:25:31.957Z,53.00
2023-02-21T22:28:03.919Z,53.00
2023-02-21T22:30:33.399Z,53.50
2023-02-21T22:33:01.693Z,53.60
2023-02-21T22:35:29.812Z,53.60
2023-02-21T22:38:01.920Z,53.80
2023-02-21T22:40:34.967Z,53.30
2023-02-21T22:43:05.372Z,53.30
2023-02-21T22:45:34.905Z,53.60
2023-02-21T22:48:04.825Z,53.70
2023-02-21T22:50:36.827Z,54.50
2023-02-21T22:53:08.308Z,53.90
2023-02-21T22:55:38.085Z,53.90
2023-02-21T22:58:09.277Z,54.00
2023-02-21T23:00:39.142Z,54.70
2023-02-21T23:03:13.315Z,54.50
2023-02-21T23:05:43.615Z,55.10
2023-02-21T23:08:13.138Z,55.10
2023-02-21T23:10:41.686Z,55.50
2023-02-21T23:13:14.149Z,55.80
2023-02-21T23:15:45.128Z,56.60
2023-02-21T23:18:20.288Z,55.90
2023-02-21T23:20:52.504Z,56.00
2023-02-21T23:23:21.160Z,55.90
2023-02-21T23:25:49.580Z,55.90
2023-02-21T23:28:18.428Z,56.10
2023-02-21T23:30:49.607Z,56.00
2023-02-21T23:33:22.878Z,56.50
2023-02-21T23:35:52.307Z,56.30
2023-02-21T23:38:23.122Z,56.50
2023-02-21T23:40:56.103Z,56.10
2023-02-21T23:43:26.252Z,55.70
2023-02-21T23:45:56.540Z,55.40
2023-02-21T23:48:25.036Z,55.30
2023-02-21T23:50:57.503Z,55.60
2023-02-21T23:53:27.657Z,55.80
2023-02-21T23:55:57.701Z,54.80
2023-02-21T23:58:28.260Z,55.60
